Time;durP1;ratioP1;P1;durP2;ratioP2;P2;SDS_P1;SDS_P2;PMS_P1;PMS_P2;Temp;Humidity;BMP_temperature;BMP_pressure;BME280_temperature;BME280_humidity;BME280_pressure;Samples;Min_cycle;Max_cycle;Signal;HPM_P1;HPM_P2
2022/07/12 00:01:31;;;;;;;0.25;0.25;;;;;;;;;;5024736;28;20559;-71
2022/07/12 00:03:59;;;;;;;0.10;0.10;;;;;;;;;;5022981;28;20138;-71
2022/07/12 00:06:37;;;;;;;0.10;0.10;;;;;;;;;;5025075;28;20053;-72
2022/07/12 00:09:05;;;;;;;0.08;0.08;;;;;;;;;;5023503;28;20569;-71
2022/07/12 00:11:35;;;;;;;0.30;0.10;;;;;;;;;;5026574;28;20128;-72
2022/07/12 00:14:03;;;;;;;0.05;0.05;;;;;;;;;;5023396;28;20133;-71
2022/07/12 00:16:33;;;;;;;0.17;0.17;;;;;;;;;;5024798;28;20183;-71
2022/07/12 00:19:02;;;;;;;0.10;0.10;;;;;;;;;;5025891;28;20088;-71
2022/07/12 00:21:30;;;;;;;0.40;0.40;;;;;;;;;;5026461;28;20639;-72
2022/07/12 00:23:58;;;;;;;0.30;0.30;;;;;;;;;;5024232;28;20057;-74
2022/07/12 00:26:27;;;;;;;0.43;0.43;;;;;;;;;;5028010;28;20529;-71
2022/07/12 00:28:56;;;;;;;0.10;0.10;;;;;;;;;;5023256;28;20056;-72
2022/07/12 00:31:24;;;;;;;2.72;0.43;;;;;;;;;;5026862;28;20132;-72
2022/07/12 00:33:54;;;;;;;0.65;0.22;;;;;;;;;;5020826;28;20480;-72
2022/07/12 00:36:35;;;;;;;0.43;0.17;;;;;;;;;;5029875;28;20675;-72
2022/07/12 00:39:04;;;;;;;0.13;0.13;;;;;;;;;;5027231;28;20052;-72
2022/07/12 00:41:36;;;;;;;1.08;0.57;;;;;;;;;;5023388;28;20044;-71
2022/07/12 00:44:04;;;;;;;0.70;0.57;;;;;;;;;;5023605;28;20037;-72
2022/07/12 00:46:33;;;;;;;0.57;0.57;;;;;;;;;;5023825;28;20499;-72
2022/07/12 00:49:03;;;;;;;0.80;0.22;;;;;;;;;;5027504;28;20124;-74
2022/07/12 00:51:31;;;;;;;0.73;0.40;;;;;;;;;;5026974;28;20536;-72
2022/07/12 00:54:00;;;;;;;0.13;0.13;;;;;;;;;;5025494;28;20571;-72
2022/07/12 00:56:29;;;;;;;0.50;0.25;;;;;;;;;;5024678;28;20049;-71
2022/07/12 00:58:57;;;;;;;0.22;0.13;;;;;;;;;;5027402;28;20041;-72
2022/07/12 01:01:35;;;;;;;0.10;0.10;;;;;;;;;;5024048;28;20060;-72
2022/07/12 01:04:05;;;;;;;0.17;0.17;;;;;;;;;;5027578;28;20053;-72
2022/07/12 01:06:34;;;;;;;0.50;0.32;;;;;;;;;;5013931;28;20075;-71
2022/07/12 01:09:03;;;;;;;0.28;0.20;;;;;;;;;;5028236;28;20485;-72
2022/07/12 01:11:32;;;;;;;0.30;0.30;;;;;;;;;;5027030;28;20081;-71
2022/07/12 01:14:01;;;;;;;0.10;0.10;;;;;;;;;;5033424;28;20077;-71
2022/07/12 01:16:30;;;;;;;0.10;0.10;;;;;;;;;;5029458;28;20050;-71
2022/07/12 01:18:59;;;;;;;0.70;0.47;;;;;;;;;;5032759;28;20084;-72
2022/07/12 01:21:29;;;;;;;2.55;0.45;;;;;;;;;;5032606;28;20041;-72
2022/07/12 01:24:00;;;;;;;0.20;0.20;;;;;;;;;;5030758;28;20128;-71
2022/07/12 01:26:28;;;;;;;0.20;0.20;;;;;;;;;;5032763;28;20108;-72
2022/07/12 01:28:57;;;;;;;3.50;0.30;;;;;;;;;;5033076;28;20132;-72
2022/07/12 01:31:25;;;;;;;0.20;0.20;;;;;;;;;;5031943;28;20510;-71
2022/07/12 01:33:54;;;;;;;0.20;0.10;;;;;;;;;;5033859;28;20061;-71
2022/07/12 01:36:29;;;;;;;0.00;0.00;;;;;;;;;;5030703;28;20806;-71
2022/07/12 01:38:57;;;;;;;0.57;0.20;;;;;;;;;;5032125;28;20465;-71
2022/07/12 01:41:36;;;;;;;0.10;0.10;;;;;;;;;;5031742;28;20081;-71
2022/07/12 01:44:05;;;;;;;0.05;0.05;;;;;;;;;;5031387;28;20573;-71
2022/07/12 01:46:33;;;;;;;0.30;0.30;;;;;;;;;;5027872;28;20036;-72
2022/07/12 01:49:02;;;;;;;0.20;0.20;;;;;;;;;;5029345;28;20044;-72
2022/07/12 01:51:33;;;;;;;0.10;0.10;;;;;;;;;;5028758;28;20056;-72
2022/07/12 01:54:01;;;;;;;0.43;0.43;;;;;;;;;;5024498;28;20508;-72
2022/07/12 01:56:30;;;;;;;0.25;0.17;;;;;;;;;;5028744;28;20378;-71
2022/07/12 01:58:59;;;;;;;0.52;0.30;;;;;;;;;;5027837;28;20080;-72
2022/07/12 02:01:28;;;;;;;0.22;0.20;;;;;;;;;;5033678;28;20128;-72
2022/07/12 02:03:57;;;;;;;0.08;0.08;;;;;;;;;;5026980;28;20049;-71
2022/07/12 02:06:26;;;;;;;0.25;0.10;;;;;;;;;;5029806;28;20081;-72
2022/07/12 02:08:54;;;;;;;0.15;0.15;;;;;;;;;;5028359;28;20594;-72
2022/07/12 02:11:25;;;;;;;0.30;0.20;;;;;;;;;;5024837;28;20053;-72
2022/07/12 02:13:54;;;;;;;0.65;0.20;;;;;;;;;;5029020;28;20084;-72
2022/07/12 02:16:29;;;;;;;0.20;0.20;;;;;;;;;;5025317;28;20047;-72
2022/07/12 02:18:58;;;;;;;1.25;0.20;;;;;;;;;;5031070;28;20041;-71
2022/07/12 02:21:45;;;;;;;0.10;0.10;;;;;;;;;;5027239;28;20392;-71
2022/07/12 02:24:13;;;;;;;0.10;0.10;;;;;;;;;;5023699;28;20489;-72
2022/07/12 02:27:16;;;;;;;0.30;0.28;;;;;;;;;;5031085;28;20155;-72
2022/07/12 02:29:44;;;;;;;0.00;0.00;;;;;;;;;;5028958;28;20476;-72
2022/07/12 02:32:14;;;;;;;0.32;0.32;;;;;;;;;;5023161;28;20479;-72
2022/07/12 02:34:42;;;;;;;0.40;0.15;;;;;;;;;;5025743;28;20152;-72
2022/07/12 02:37:20;;;;;;;0.47;0.30;;;;;;;;;;5022573;28;20136;-71
2022/07/12 02:39:48;;;;;;;0.30;0.13;;;;;;;;;;4984978;28;20097;-71
2022/07/12 02:45:39;;;;;;;0.00;0.00;;;;;;;;;;4985199;28;20469;-71
2022/07/12 02:48:10;;;;;;;0.10;0.10;;;;;;;;;;5004258;28;20037;-72
2022/07/12 02:50:44;;;;;;;0.08;0.08;;;;;;;;;;5007028;28;20136;-72
2022/07/12 02:53:13;;;;;;;0.15;0.15;;;;;;;;;;5007019;28;20053;-72
2022/07/12 02:55:41;;;;;;;0.17;0.17;;;;;;;;;;5007522;28;20137;-72
2022/07/12 02:58:11;;;;;;;0.77;0.15;;;;;;;;;;5012947;28;20660;-72
2022/07/12 03:00:40;;;;;;;0.50;0.50;;;;;;;;;;5006308;28;20077;-72
2022/07/12 03:03:10;;;;;;;0.05;0.05;;;;;;;;;;5004811;28;20466;-71
2022/07/12 03:05:39;;;;;;;0.10;0.10;;;;;;;;;;5006073;28;20713;-71
2022/07/12 03:08:08;;;;;;;0.45;0.20;;;;;;;;;;5008753;28;20042;-71
2022/07/12 03:10:36;;;;;;;0.35;0.35;;;;;;;;;;5008529;28;20050;-72
2022/07/12 03:13:05;;;;;;;0.55;0.38;;;;;;;;;;5008780;28;20046;-71
2022/07/12 03:15:34;;;;;;;0.10;0.10;;;;;;;;;;5006371;28;20449;-72
2022/07/12 03:18:03;;;;;;;0.65;0.13;;;;;;;;;;5005037;28;20052;-71
2022/07/12 03:20:33;;;;;;;0.30;0.30;;;;;;;;;;5010015;28;20060;-71
2022/07/12 03:23:01;;;;;;;0.25;0.25;;;;;;;;;;5008278;28;20678;-71
2022/07/12 03:25:29;;;;;;;1.05;0.40;;;;;;;;;;5011676;28;20141;-71
2022/07/12 03:27:58;;;;;;;0.20;0.20;;;;;;;;;;5006608;28;20113;-72
2022/07/12 03:30:27;;;;;;;0.20;0.20;;;;;;;;;;5009519;28;20061;-71
2022/07/12 03:32:55;;;;;;;0.30;0.28;;;;;;;;;;5007050;28;20133;-71
2022/07/12 03:35:24;;;;;;;0.63;0.40;;;;;;;;;;5008339;28;20133;-71
2022/07/12 03:37:54;;;;;;;0.25;0.22;;;;;;;;;;5012252;28;20084;-71
2022/07/12 03:40:23;;;;;;;0.43;0.43;;;;;;;;;;5025712;28;20132;-72
2022/07/12 03:42:53;;;;;;;0.47;0.20;;;;;;;;;;5024722;28;20045;-71
2022/07/12 03:45:22;;;;;;;0.30;0.30;;;;;;;;;;5026747;28;20055;-71
2022/07/12 03:47:50;;;;;;;3.85;0.73;;;;;;;;;;5026730;28;20164;-71
2022/07/12 03:50:19;;;;;;;0.22;0.22;;;;;;;;;;5025263;28;20088;-72
2022/07/12 03:52:47;;;;;;;0.10;0.10;;;;;;;;;;5028453;28;20523;-72
2022/07/12 03:55:17;;;;;;;0.10;0.10;;;;;;;;;;5026768;28;20125;-72
2022/07/12 03:57:46;;;;;;;0.50;0.40;;;;;;;;;;5025714;28;20094;-71
2022/07/12 04:00:15;;;;;;;0.28;0.28;;;;;;;;;;5028037;28;20160;-72
2022/07/12 04:02:44;;;;;;;0.30;0.25;;;;;;;;;;5028184;28;20489;-73
2022/07/12 04:05:13;;;;;;;0.10;0.10;;;;;;;;;;5028491;28;20084;-72
2022/07/12 04:07:41;;;;;;;0.35;0.35;;;;;;;;;;5025698;28;20127;-72
2022/07/12 04:10:10;;;;;;;0.30;0.20;;;;;;;;;;5023900;28;20128;-73
2022/07/12 04:12:40;;;;;;;0.43;0.25;;;;;;;;;;5026367;28;20037;-72
2022/07/12 04:15:09;;;;;;;0.47;0.47;;;;;;;;;;5026599;28;20164;-72
2022/07/12 04:17:38;;;;;;;1.35;0.73;;;;;;;;;;5025619;28;20033;-72
2022/07/12 04:20:07;;;;;;;0.15;0.15;;;;;;;;;;5025582;28;20136;-72
2022/07/12 04:22:35;;;;;;;0.35;0.35;;;;;;;;;;5029465;28;20049;-71
2022/07/12 04:25:04;;;;;;;0.40;0.20;;;;;;;;;;5023635;28;20053;-72
2022/07/12 04:27:32;;;;;;;0.28;0.28;;;;;;;;;;5022274;28;20073;-72
2022/07/12 04:30:02;;;;;;;1.98;0.57;;;;;;;;;;5028560;28;20139;-72
2022/07/12 04:32:31;;;;;;;0.73;0.45;;;;;;;;;;5029121;28;20041;-72
2022/07/12 04:35:00;;;;;;;0.80;0.52;;;;;;;;;;5020376;28;20050;-72
2022/07/12 04:37:28;;;;;;;0.17;0.17;;;;;;;;;;5012785;28;20111;-73
2022/07/12 04:39:56;;;;;;;0.90;0.90;;;;;;;;;;5016561;28;20047;-71
2022/07/12 04:42:25;;;;;;;4.50;0.50;;;;;;;;;;5015783;28;20051;-72
2022/07/12 04:44:53;;;;;;;0.85;0.30;;;;;;;;;;5021946;28;20128;-73
2022/07/12 04:47:23;;;;;;;0.52;0.38;;;;;;;;;;5026657;28;20128;-72
2022/07/12 04:49:51;;;;;;;1.55;0.50;;;;;;;;;;5027531;28;20136;-72
2022/07/12 04:52:19;;;;;;;0.75;0.43;;;;;;;;;;5027135;28;20080;-72
2022/07/12 04:54:48;;;;;;;0.20;0.20;;;;;;;;;;5026912;28;20545;-72
2022/07/12 04:57:16;;;;;;;0.30;0.30;;;;;;;;;;5030031;28;20132;-71
2022/07/12 04:59:45;;;;;;;0.52;0.40;;;;;;;;;;5039523;28;20132;-71
2022/07/12 05:02:13;;;;;;;0.28;0.28;;;;;;;;;;5029372;28;20540;-71
2022/07/12 05:04:44;;;;;;;0.20;0.20;;;;;;;;;;5026014;28;20501;-72
2022/07/12 05:07:12;;;;;;;3.42;0.70;;;;;;;;;;5030123;28;20045;-72
2022/07/12 05:09:40;;;;;;;0.50;0.47;;;;;;;;;;5028246;28;20485;-72
2022/07/12 05:12:09;;;;;;;0.60;0.35;;;;;;;;;;5028201;28;20087;-73
2022/07/12 05:14:37;;;;;;;0.30;0.30;;;;;;;;;;5029583;28;20124;-71
2022/07/12 05:17:06;;;;;;;0.28;0.28;;;;;;;;;;5028139;28;20076;-71
2022/07/12 05:19:34;;;;;;;0.73;0.73;;;;;;;;;;5022623;28;20075;-72
2022/07/12 05:22:04;;;;;;;0.10;0.10;;;;;;;;;;5023249;28;20060;-72
2022/07/12 05:24:33;;;;;;;1.15;0.88;;;;;;;;;;5021884;28;20125;-72
2022/07/12 05:27:01;;;;;;;0.25;0.25;;;;;;;;;;5021713;28;20065;-71
2022/07/12 05:29:29;;;;;;;0.20;0.20;;;;;;;;;;5024900;28;20084;-71
2022/07/12 05:31:58;;;;;;;0.50;0.17;;;;;;;;;;5023827;28;20132;-71
2022/07/12 05:34:26;;;;;;;0.00;0.00;;;;;;;;;;5024967;28;20144;-72
2022/07/12 05:36:54;;;;;;;0.30;0.30;;;;;;;;;;5026883;28;20054;-72
2022/07/12 05:39:24;;;;;;;0.10;0.10;;;;;;;;;;5033121;28;20157;-72
2022/07/12 05:41:52;;;;;;;0.52;0.52;;;;;;;;;;5008095;28;20045;-71
2022/07/12 05:44:22;;;;;;;0.20;0.20;;;;;;;;;;5025115;28;20041;-72
2022/07/12 05:46:50;;;;;;;0.15;0.15;;;;;;;;;;5022048;28;20129;-73
2022/07/12 05:49:19;;;;;;;0.22;0.22;;;;;;;;;;5027221;28;20133;-71
2022/07/12 05:54:35;;;;;;;0.20;0.10;;;;;;;;;;5026078;28;20125;-72
2022/07/12 05:57:03;;;;;;;0.20;0.20;;;;;;;;;;5018287;28;20132;-71
2022/07/12 05:59:32;;;;;;;0.10;0.10;;;;;;;;;;5030135;28;20125;-71
2022/07/12 06:02:00;;;;;;;0.10;0.10;;;;;;;;;;5029984;28;20069;-71
2022/07/12 06:04:29;;;;;;;0.40;0.30;;;;;;;;;;5020495;28;20054;-72
2022/07/12 06:06:57;;;;;;;0.38;0.30;;;;;;;;;;5017476;28;20346;-71
2022/07/12 06:09:26;;;;;;;0.10;0.10;;;;;;;;;;5020905;28;20757;-71
2022/07/12 06:11:55;;;;;;;0.10;0.10;;;;;;;;;;5018755;28;20092;-72
2022/07/12 06:14:24;;;;;;;0.52;0.20;;;;;;;;;;5017365;28;20041;-73
2022/07/12 06:16:53;;;;;;;0.00;0.00;;;;;;;;;;5023896;28;20065;-71
2022/07/12 06:19:23;;;;;;;0.98;0.28;;;;;;;;;;5020766;28;20120;-72
2022/07/12 06:21:51;;;;;;;0.00;0.00;;;;;;;;;;5021413;28;20132;-72
2022/07/12 06:24:20;;;;;;;0.13;0.13;;;;;;;;;;5019559;28;20151;-72
2022/07/12 06:26:48;;;;;;;0.10;0.10;;;;;;;;;;5019226;28;20053;-73
2022/07/12 06:29:18;;;;;;;0.20;0.20;;;;;;;;;;5021514;28;20072;-72
2022/07/12 06:31:46;;;;;;;0.05;0.05;;;;;;;;;;5024354;28;20494;-72
2022/07/12 06:34:15;;;;;;;0.13;0.13;;;;;;;;;;5019777;28;20132;-72
2022/07/12 06:36:43;;;;;;;0.20;0.20;;;;;;;;;;5015947;28;20053;-73
2022/07/12 06:39:12;;;;;;;0.47;0.13;;;;;;;;;;5018371;28;20572;-73
2022/07/12 06:41:40;;;;;;;0.40;0.40;;;;;;;;;;5020221;28;20080;-72
2022/07/12 06:44:09;;;;;;;0.10;0.10;;;;;;;;;;5023459;28;20397;-72
2022/07/12 06:46:38;;;;;;;0.00;0.00;;;;;;;;;;5017569;28;20072;-73
2022/07/12 06:49:14;;;;;;;0.05;0.05;;;;;;;;;;5019770;28;20045;-72
2022/07/12 06:51:42;;;;;;;0.00;0.00;;;;;;;;;;5022412;28;20084;-72
2022/07/12 06:54:11;;;;;;;0.10;0.10;;;;;;;;;;5024500;28;20075;-73
2022/07/12 06:56:39;;;;;;;0.00;0.00;;;;;;;;;;5020651;28;20068;-73
2022/07/12 06:59:10;;;;;;;0.03;0.03;;;;;;;;;;5024933;28;20037;-72
2022/07/12 07:01:45;;;;;;;0.00;0.00;;;;;;;;;;5027139;28;20068;-73
2022/07/12 07:04:14;;;;;;;0.03;0.03;;;;;;;;;;5021816;28;20136;-72
2022/07/12 07:06:42;;;;;;;0.00;0.00;;;;;;;;;;5024387;28;20045;-72
2022/07/12 07:09:11;;;;;;;0.00;0.00;;;;;;;;;;5021998;28;20485;-72
2022/07/12 07:11:40;;;;;;;0.10;0.10;;;;;;;;;;5021176;28;20364;-72
2022/07/12 07:14:09;;;;;;;0.00;0.00;;;;;;;;;;5022781;28;20045;-72
2022/07/12 07:16:38;;;;;;;0.52;0.28;;;;;;;;;;5022046;28;20057;-72
2022/07/12 07:19:09;;;;;;;0.60;0.60;;;;;;;;;;5024265;28;20050;-74
2022/07/12 07:21:38;;;;;;;0.10;0.03;;;;;;;;;;5021017;28;20057;-71
2022/07/12 07:24:06;;;;;;;0.20;0.20;;;;;;;;;;5022113;28;20037;-72
2022/07/12 07:26:35;;;;;;;0.10;0.10;;;;;;;;;;5020739;28;20045;-72
2022/07/12 07:31:49;;;;;;;0.00;0.00;;;;;;;;;;5021543;28;20091;-71
2022/07/12 07:34:20;;;;;;;0.05;0.05;;;;;;;;;;5016788;28;20045;-73
2022/07/12 07:36:49;;;;;;;0.00;0.00;;;;;;;;;;5019292;28;20053;-73
2022/07/12 07:39:17;;;;;;;0.00;0.00;;;;;;;;;;5011604;28;21004;-71
2022/07/12 07:41:48;;;;;;;0.00;0.00;;;;;;;;;;5006105;28;20046;-71
2022/07/12 07:44:17;;;;;;;0.08;0.08;;;;;;;;;;5001804;28;20065;-71
2022/07/12 07:46:45;;;;;;;0.00;0.00;;;;;;;;;;5005618;28;20045;-71
2022/07/12 07:49:15;;;;;;;0.00;0.00;;;;;;;;;;5002653;28;20696;-72
2022/07/12 07:51:45;;;;;;;0.10;0.10;;;;;;;;;;5006822;28;20130;-71
2022/07/12 07:54:13;;;;;;;0.00;0.00;;;;;;;;;;5001398;28;20046;-72
2022/07/12 07:56:42;;;;;;;0.00;0.00;;;;;;;;;;5004330;28;20152;-72
2022/07/12 07:59:11;;;;;;;0.00;0.00;;;;;;;;;;5007140;28;20141;-72
2022/07/12 08:01:52;;;;;;;0.00;0.00;;;;;;;;;;5004733;28;20034;-72
2022/07/12 08:04:21;;;;;;;0.05;0.05;;;;;;;;;;5001364;28;20046;-71
2022/07/12 08:06:51;;;;;;;0.05;0.05;;;;;;;;;;5001694;28;20274;-71
2022/07/12 08:09:20;;;;;;;0.15;0.15;;;;;;;;;;5002638;28;20042;-73
2022/07/12 08:11:49;;;;;;;0.00;0.00;;;;;;;;;;5005234;28;20103;-73
2022/07/12 08:14:18;;;;;;;0.00;0.00;;;;;;;;;;5000522;28;20578;-71
2022/07/12 08:16:47;;;;;;;0.00;0.00;;;;;;;;;;4998363;28;20064;-71
2022/07/12 08:19:16;;;;;;;0.00;0.00;;;;;;;;;;4986337;28;20444;-73
2022/07/12 08:21:45;;;;;;;0.00;0.00;;;;;;;;;;4984584;28;20084;-71
2022/07/12 08:24:15;;;;;;;0.00;0.00;;;;;;;;;;4985692;28;20034;-72
2022/07/12 08:26:44;;;;;;;0.00;0.00;;;;;;;;;;4982280;28;20038;-72
2022/07/12 08:29:13;;;;;;;0.00;0.00;;;;;;;;;;4983003;28;20117;-71
2022/07/12 08:31:42;;;;;;;0.30;0.20;;;;;;;;;;4981441;28;20490;-71
2022/07/12 08:34:10;;;;;;;0.00;0.00;;;;;;;;;;4980580;28;20487;-71
2022/07/12 08:36:39;;;;;;;0.10;0.00;;;;;;;;;;4981069;28;20061;-72
2022/07/12 08:39:08;;;;;;;0.00;0.00;;;;;;;;;;4997809;28;20065;-71
2022/07/12 08:41:38;;;;;;;0.38;0.38;;;;;;;;;;5005134;28;20042;-72
2022/07/12 08:44:07;;;;;;;0.03;0.03;;;;;;;;;;5004070;28;20482;-71
2022/07/12 08:46:36;;;;;;;0.30;0.08;;;;;;;;;;5005105;28;20551;-72
2022/07/12 08:49:07;;;;;;;0.10;0.08;;;;;;;;;;5005704;28;20045;-72
2022/07/12 08:51:36;;;;;;;0.00;0.00;;;;;;;;;;5001821;28;20042;-72
2022/07/12 08:54:08;;;;;;;0.00;0.00;;;;;;;;;;5002214;28;20053;-72
2022/07/12 08:56:39;;;;;;;0.10;0.10;;;;;;;;;;5001958;28;20054;-72
2022/07/12 08:59:11;;;;;;;0.03;0.03;;;;;;;;;;4997039;28;20057;-71
2022/07/12 09:01:42;;;;;;;0.00;0.00;;;;;;;;;;5001253;28;20121;-71
2022/07/12 09:04:11;;;;;;;0.00;0.00;;;;;;;;;;5005478;28;20056;-71
2022/07/12 09:06:40;;;;;;;0.00;0.00;;;;;;;;;;4997949;28;20132;-71
2022/07/12 09:09:09;;;;;;;0.47;0.20;;;;;;;;;;5001623;28;20406;-72
2022/07/12 09:11:40;;;;;;;0.15;0.15;;;;;;;;;;4996446;28;20177;-71
2022/07/12 09:14:09;;;;;;;0.00;0.00;;;;;;;;;;4990889;28;20045;-73
2022/07/12 09:16:37;;;;;;;0.10;0.10;;;;;;;;;;4993231;28;20046;-71
2022/07/12 09:19:13;;;;;;;0.00;0.00;;;;;;;;;;4998533;28;20362;-72
2022/07/12 09:21:49;;;;;;;0.00;0.00;;;;;;;;;;4996195;28;20050;-71
2022/07/12 09:24:18;;;;;;;0.10;0.10;;;;;;;;;;4997304;28;20042;-70
2022/07/12 09:26:48;;;;;;;0.08;0.08;;;;;;;;;;4999514;28;20124;-70
2022/07/12 09:29:18;;;;;;;0.00;0.00;;;;;;;;;;4989701;28;20054;-71
2022/07/12 09:37:25;;;;;;;0.30;0.30;;;;;;;;;;5009648;28;20401;-71
2022/07/12 09:39:54;;;;;;;0.00;0.00;;;;;;;;;;5017980;28;20060;-71
2022/07/12 09:42:24;;;;;;;0.00;0.00;;;;;;;;;;5027154;28;20077;-72
2022/07/12 09:44:57;;;;;;;0.08;0.08;;;;;;;;;;5026874;28;20382;-70
2022/07/12 09:47:26;;;;;;;0.10;0.10;;;;;;;;;;5012390;28;20046;-70
2022/07/12 09:49:55;;;;;;;0.00;0.00;;;;;;;;;;5000853;28;20052;-71
2022/07/12 09:52:25;;;;;;;0.00;0.00;;;;;;;;;;5004456;28;20050;-71
2022/07/12 09:54:55;;;;;;;0.00;0.00;;;;;;;;;;5011495;28;20050;-71
2022/07/12 09:57:27;;;;;;;0.00;0.00;;;;;;;;;;5012214;28;20044;-72
2022/07/12 09:59:56;;;;;;;0.00;0.00;;;;;;;;;;4999654;28;20554;-71
2022/07/12 10:02:25;;;;;;;0.00;0.00;;;;;;;;;;5008622;28;20034;-71
2022/07/12 10:04:56;;;;;;;0.00;0.00;;;;;;;;;;5009126;28;20509;-71
2022/07/12 10:07:24;;;;;;;0.10;0.00;;;;;;;;;;5000509;28;20302;-71
2022/07/12 10:09:54;;;;;;;0.00;0.00;;;;;;;;;;5002200;28;20046;-70
2022/07/12 10:12:25;;;;;;;0.00;0.00;;;;;;;;;;5006656;28;20145;-71
2022/07/12 10:14:56;;;;;;;0.00;0.00;;;;;;;;;;5008685;28;20058;-71
2022/07/12 10:17:26;;;;;;;0.08;0.08;;;;;;;;;;5009973;28;20541;-70
2022/07/12 10:20:09;;;;;;;0.00;0.00;;;;;;;;;;5007980;28;20049;-71
2022/07/12 10:22:38;;;;;;;0.00;0.00;;;;;;;;;;5008734;28;20042;-71
2022/07/12 10:25:27;;;;;;;0.15;0.00;;;;;;;;;;4998265;28;20446;-70
2022/07/12 10:27:59;;;;;;;0.00;0.00;;;;;;;;;;5009373;28;20049;-71
2022/07/12 10:30:28;;;;;;;0.03;0.00;;;;;;;;;;5010447;28;20046;-71
2022/07/12 10:32:59;;;;;;;0.32;0.15;;;;;;;;;;5003277;28;20112;-71
2022/07/12 10:35:28;;;;;;;0.00;0.00;;;;;;;;;;5003238;28;20058;-70
2022/07/12 10:38:25;;;;;;;0.13;0.13;;;;;;;;;;4998643;28;20054;-71
2022/07/12 10:40:54;;;;;;;0.08;0.08;;;;;;;;;;4951471;28;20050;-71
2022/07/12 10:46:15;;;;;;;0.05;0.00;;;;;;;;;;4998307;28;20037;-70
2022/07/12 10:48:43;;;;;;;0.00;0.00;;;;;;;;;;4998247;28;20041;-70
2022/07/12 10:51:16;;;;;;;0.05;0.05;;;;;;;;;;5000358;28;20073;-70
2022/07/12 10:53:48;;;;;;;0.00;0.00;;;;;;;;;;5003602;28;20065;-70
2022/07/12 10:56:17;;;;;;;0.10;0.10;;;;;;;;;;4995901;28;20053;-70
2022/07/12 10:58:56;;;;;;;0.00;0.00;;;;;;;;;;5000204;28;20063;-70
2022/07/12 11:01:25;;;;;;;0.00;0.00;;;;;;;;;;5004221;28;20333;-70
2022/07/12 11:03:56;;;;;;;0.05;0.05;;;;;;;;;;5005777;28;20107;-69
2022/07/12 11:06:25;;;;;;;0.00;0.00;;;;;;;;;;4999274;28;20049;-69
2022/07/12 11:08:56;;;;;;;0.00;0.00;;;;;;;;;;4996054;28;20046;-71
2022/07/12 11:11:25;;;;;;;0.00;0.00;;;;;;;;;;5004376;28;20052;-71
2022/07/12 11:13:56;;;;;;;0.00;0.00;;;;;;;;;;5000708;28;20069;-71
2022/07/12 11:16:25;;;;;;;0.10;0.10;;;;;;;;;;4998830;28;20050;-70
2022/07/12 11:18:55;;;;;;;0.10;0.10;;;;;;;;;;5001373;28;20038;-71
2022/07/12 11:21:24;;;;;;;0.10;0.10;;;;;;;;;;4996202;28;20382;-73
2022/07/12 11:23:54;;;;;;;0.00;0.00;;;;;;;;;;5000449;28;20045;-71
2022/07/12 11:26:22;;;;;;;0.00;0.00;;;;;;;;;;5009735;28;20362;-70
2022/07/12 11:28:51;;;;;;;0.00;0.00;;;;;;;;;;5007564;28;20042;-70
2022/07/12 11:31:22;;;;;;;0.00;0.00;;;;;;;;;;5008714;28;20125;-70
2022/07/12 11:33:52;;;;;;;0.03;0.00;;;;;;;;;;4998464;28;20133;-70
2022/07/12 11:36:21;;;;;;;0.00;0.00;;;;;;;;;;4995931;28;20438;-70
2022/07/12 11:38:49;;;;;;;0.03;0.00;;;;;;;;;;5016434;28;20061;-70
2022/07/12 11:41:19;;;;;;;0.00;0.00;;;;;;;;;;5022181;28;20041;-70
2022/07/12 11:43:48;;;;;;;0.00;0.00;;;;;;;;;;5012677;28;20140;-70
2022/07/12 11:46:17;;;;;;;0.00;0.00;;;;;;;;;;5013393;28;20069;-70
2022/07/12 11:48:47;;;;;;;0.08;0.08;;;;;;;;;;5022144;28;20041;-70
2022/07/12 11:51:16;;;;;;;0.08;0.00;;;;;;;;;;5026090;28;20165;-71
2022/07/12 11:53:44;;;;;;;0.00;0.00;;;;;;;;;;5023004;28;20046;-71
2022/07/12 11:56:13;;;;;;;0.00;0.00;;;;;;;;;;5021396;28;20053;-70
2022/07/12 11:58:41;;;;;;;0.08;0.03;;;;;;;;;;5029148;28;20049;-73
2022/07/12 12:01:13;;;;;;;0.00;0.00;;;;;;;;;;5025489;28;20421;-70
2022/07/12 12:03:45;;;;;;;0.00;0.00;;;;;;;;;;5024322;28;20037;-71
2022/07/12 12:06:16;;;;;;;0.00;0.00;;;;;;;;;;5025621;28;20041;-71
2022/07/12 12:08:45;;;;;;;0.00;0.00;;;;;;;;;;5005534;28;20053;-71
2022/07/12 12:11:15;;;;;;;0.00;0.00;;;;;;;;;;5008087;28;20442;-70
2022/07/12 12:13:44;;;;;;;0.00;0.00;;;;;;;;;;5002610;28;20054;-70
2022/07/12 12:16:12;;;;;;;0.00;0.00;;;;;;;;;;5000085;28;20041;-70
2022/07/12 12:18:43;;;;;;;0.10;0.10;;;;;;;;;;5001327;28;20180;-70
2022/07/12 12:21:12;;;;;;;0.00;0.00;;;;;;;;;;5007269;28;20054;-71
2022/07/12 12:23:43;;;;;;;0.00;0.00;;;;;;;;;;5005110;28;20042;-71
2022/07/12 12:26:13;;;;;;;0.00;0.00;;;;;;;;;;5001858;28;20050;-71
2022/07/12 12:28:42;;;;;;;0.22;0.22;;;;;;;;;;5006840;28;20571;-70
2022/07/12 12:31:11;;;;;;;0.00;0.00;;;;;;;;;;4992353;28;20388;-72
2022/07/12 12:33:40;;;;;;;0.00;0.00;;;;;;;;;;5009727;28;20037;-70
2022/07/12 12:36:15;;;;;;;0.00;0.00;;;;;;;;;;5003883;28;20054;-70
2022/07/12 12:38:46;;;;;;;0.00;0.00;;;;;;;;;;5010747;28;20058;-70
2022/07/12 12:41:16;;;;;;;0.00;0.00;;;;;;;;;;5018517;28;20045;-69
2022/07/12 12:43:44;;;;;;;2.25;0.10;;;;;;;;;;5020981;28;20100;-72
2022/07/12 12:46:20;;;;;;;0.08;0.08;;;;;;;;;;5021242;28;20046;-70
2022/07/12 12:48:49;;;;;;;0.10;0.00;;;;;;;;;;5021722;28;20050;-71
2022/07/12 12:51:18;;;;;;;0.00;0.00;;;;;;;;;;5022061;28;21360;-71
2022/07/12 12:53:56;;;;;;;0.10;0.10;;;;;;;;;;5023267;28;20287;-70
2022/07/12 12:56:25;;;;;;;0.08;0.08;;;;;;;;;;5017448;28;20057;-70
2022/07/12 12:58:55;;;;;;;0.10;0.10;;;;;;;;;;5021863;28;20041;-70
2022/07/12 13:01:23;;;;;;;0.00;0.00;;;;;;;;;;5021792;28;20054;-70
2022/07/12 13:03:52;;;;;;;0.05;0.05;;;;;;;;;;5018853;28;20107;-70
2022/07/12 13:06:22;;;;;;;0.00;0.00;;;;;;;;;;5018057;28;20392;-72
2022/07/12 13:08:52;;;;;;;0.00;0.00;;;;;;;;;;5025328;28;20124;-70
2022/07/12 13:11:22;;;;;;;0.00;0.00;;;;;;;;;;5026095;28;20037;-70
2022/07/12 13:13:51;;;;;;;0.00;0.00;;;;;;;;;;5024606;28;20389;-70
2022/07/12 13:16:20;;;;;;;0.00;0.00;;;;;;;;;;5023447;28;20439;-72
2022/07/12 13:18:49;;;;;;;0.00;0.00;;;;;;;;;;5028381;28;20046;-69
2022/07/12 13:21:18;;;;;;;0.85;0.08;;;;;;;;;;5024475;28;20064;-70
2022/07/12 13:23:46;;;;;;;0.00;0.00;;;;;;;;;;5025992;28;20050;-70
2022/07/12 13:26:16;;;;;;;0.47;0.00;;;;;;;;;;5029765;28;20037;-70
2022/07/12 13:28:45;;;;;;;0.10;0.10;;;;;;;;;;5021246;28;20065;-70
2022/07/12 13:31:13;;;;;;;0.00;0.00;;;;;;;;;;5026035;28;20049;-70
2022/07/12 13:33:42;;;;;;;0.00;0.00;;;;;;;;;;5020269;28;20070;-71
2022/07/12 13:36:10;;;;;;;0.20;0.17;;;;;;;;;;5018603;28;20037;-70
2022/07/12 13:38:39;;;;;;;0.00;0.00;;;;;;;;;;5022070;28;20123;-70
2022/07/12 13:41:07;;;;;;;0.00;0.00;;;;;;;;;;5026108;28;20041;-71
2022/07/12 13:43:37;;;;;;;0.00;0.00;;;;;;;;;;5022816;28;20041;-71
2022/07/12 13:46:09;;;;;;;0.20;0.20;;;;;;;;;;5023505;28;20064;-71
2022/07/12 13:48:38;;;;;;;0.80;0.20;;;;;;;;;;5009449;28;20060;-71
2022/07/12 13:51:07;;;;;;;0.00;0.00;;;;;;;;;;5026452;28;20037;-71
2022/07/12 13:53:55;;;;;;;0.00;0.00;;;;;;;;;;5015487;28;20034;-70
2022/07/12 13:56:24;;;;;;;0.13;0.10;;;;;;;;;;5024752;28;20056;-72
2022/07/12 13:58:54;;;;;;;0.00;0.00;;;;;;;;;;5024548;28;20049;-70
2022/07/12 14:01:23;;;;;;;0.00;0.00;;;;;;;;;;5026678;28;20037;-70
2022/07/12 14:03:51;;;;;;;0.00;0.00;;;;;;;;;;5029573;28;20053;-70
2022/07/12 14:06:20;;;;;;;0.00;0.00;;;;;;;;;;5027303;28;20043;-71
2022/07/12 14:08:48;;;;;;;0.10;0.10;;;;;;;;;;5024237;28;20107;-70
2022/07/12 14:11:21;;;;;;;0.10;0.10;;;;;;;;;;5025356;28;20579;-70
2022/07/12 14:13:50;;;;;;;0.00;0.00;;;;;;;;;;5028164;28;20115;-71
2022/07/12 14:16:21;;;;;;;0.00;0.00;;;;;;;;;;5017446;28;20049;-71
2022/07/12 14:18:50;;;;;;;0.00;0.00;;;;;;;;;;5020297;28;20050;-71
2022/07/12 14:21:18;;;;;;;0.00;0.00;;;;;;;;;;5019648;28;20065;-71
2022/07/12 14:23:47;;;;;;;0.10;0.10;;;;;;;;;;5023930;28;20065;-71
2022/07/12 14:26:15;;;;;;;0.10;0.10;;;;;;;;;;5023912;28;20044;-70
2022/07/12 14:28:44;;;;;;;0.03;0.03;;;;;;;;;;5026851;28;20046;-70
2022/07/12 14:31:13;;;;;;;0.00;0.00;;;;;;;;;;5027221;28;20047;-71
2022/07/12 14:33:43;;;;;;;0.30;0.30;;;;;;;;;;5024747;28;20041;-71
2022/07/12 14:36:11;;;;;;;0.00;0.00;;;;;;;;;;5024683;28;20055;-71
2022/07/12 14:38:40;;;;;;;0.25;0.25;;;;;;;;;;5023926;28;20065;-70
2022/07/12 14:41:10;;;;;;;0.08;0.08;;;;;;;;;;5020376;28;20069;-70
2022/07/12 14:43:39;;;;;;;0.00;0.00;;;;;;;;;;5025485;28;20476;-70
2022/07/12 14:46:07;;;;;;;0.03;0.00;;;;;;;;;;5027681;28;20052;-71
2022/07/12 14:48:37;;;;;;;0.00;0.00;;;;;;;;;;5025990;28;20432;-72
2022/07/12 14:51:10;;;;;;;0.00;0.00;;;;;;;;;;5031048;28;20038;-70
2022/07/12 14:53:38;;;;;;;0.00;0.00;;;;;;;;;;5027622;28;20727;-72
2022/07/12 14:56:07;;;;;;;0.30;0.15;;;;;;;;;;5027101;28;20045;-71
2022/07/12 14:58:36;;;;;;;0.00;0.00;;;;;;;;;;5009196;28;20056;-71
2022/07/12 15:01:07;;;;;;;0.10;0.10;;;;;;;;;;5009399;28;20048;-70
2022/07/12 15:03:35;;;;;;;0.00;0.00;;;;;;;;;;5009361;28;20073;-71
2022/07/12 15:06:07;;;;;;;0.00;0.00;;;;;;;;;;5008099;28;20050;-70
2022/07/12 15:08:37;;;;;;;0.00;0.00;;;;;;;;;;5030347;28;20038;-70
2022/07/12 15:11:06;;;;;;;0.10;0.10;;;;;;;;;;5032226;28;20037;-71
2022/07/12 15:13:35;;;;;;;0.20;0.20;;;;;;;;;;5028980;28;20108;-71
2022/07/12 15:16:07;;;;;;;0.00;0.00;;;;;;;;;;5023600;28;20489;-72